• Join FlightAware (Why Join?)
  • Login
  • US Flag 
05:24AM EST


 

Airport Tracker/Info


-or-


 

Live Flight TrackerFlight Track Log ✈ ASQ5541 ✈ 27-Sep-2013 ✈ KBHM - KATL

Flight Track Log - Related Links

Times and Time Zones

All times are in EDT time to prevent confusion due to time zone crossing. See the ASQ5541 flight status page for this flight to view local times or setup timezone preferences in your user account.

Time Position Orientation Groundspeed Altitude Reporting Facility
EDT Latitude Longitude Course Direction KTS MPH feet Rate Location/Type
04:56PM 33.5728 -86.7389 105° East 172 198 1,500  Level Atlanta Center
04:58PM 33.5517 -86.6436 105° East 241 277 3,600 1,920 Climbing Atlanta Center
04:59PM 33.5261 -86.5656 111° Southeast 246 283 6,500 2,580 Climbing Atlanta Center
05:00PM 33.5008 -86.4778 109° East 258 297 8,800 1,800 Climbing Atlanta Center
05:01PM 33.4611 -86.3794 116° Southeast 276 318 10,200 1,440 Climbing Atlanta Center
05:02PM 33.4256 -86.2689 111° Southeast 320 368 11,700 1,440 Climbing Atlanta Center
05:03PM 33.3667 -86.1731 126° Southeast 344 396 13,100 1,320 Climbing Atlanta Center
05:04PM 33.3014 -86.0769 129° Southeast 357 411 14,400 1,200 Climbing Atlanta Center
05:05PM 33.2364 -85.9811 129° Southeast 369 425 15,600 1,080 Climbing Atlanta Center
05:06PM 33.1669 -85.8803 129° Southeast 377 434 16,600 960 Climbing Atlanta Center
05:07PM 33.0972 -85.7819 130° Southeast 382 440 17,600 960 Climbing Atlanta Center
05:08PM 33.0278 -85.6839 130° Southeast 387 445 18,600 660 Climbing Atlanta Center
05:09PM 32.9561 -85.5786 129° Southeast 393 452 19,000 -300 Climbing Atlanta Center
05:10PM 32.8822 -85.4686 129° Southeast 410 472 18,000 -960 Descending Atlanta Center
05:11PM 32.9044 -85.3353 79° East 373 429 17,100 -720 Descending Atlanta Center
05:12PM 32.9847 -85.2422 44° Northeast 351 404 16,600 -1,440 Descending Atlanta Center
05:13PM 33.0711 -85.1567 40° Northeast 365 420 14,300 -2,100 Descending Atlanta Center
05:14PM 33.1450 -85.0783 42° Northeast 371 427 12,400 -1,200 Descending Atlanta Center
05:15PM 33.2122 -84.9972 45° Northeast 362 417 12,000 -720 Descending Atlanta Center
05:16PM 33.2672 -84.9258 47° Northeast 305 351 11,000 -1,140 Descending Atlanta Center
05:17PM 33.3406 -84.8842 25° Northeast 287 330 9,800 -1,500 Descending Atlanta Center
05:18PM 33.4139 -84.8453 24° Northeast 282 325 8,000 -1,800 Descending Atlanta Center
05:19PM 33.4831 -84.8033 27° Northeast 276 318 6,200 -1,440 Descending Atlanta Center
05:20PM 33.5458 -84.7692 24° Northeast 260 299 5,200 -600 Descending Atlanta Center
05:21PM 33.5942 -84.7222 39° Northeast 223 257 5,000 -360 Descending Atlanta Center
05:22PM 33.6153 -84.6625 67° East 197 227 4,500 -840 Descending Atlanta Center
05:23PM 33.6333 -84.5833 75° East 181 208 3,200 -1,020 Descending Atlanta TRACON
05:24PM 33.6333 -84.5167 90° East 171 197 2,200 -840 Descending Atlanta TRACON
05:25PM 33.6333 -84.4667 90° East 142 163 1,500 -720 Descending Atlanta TRACON
05:27PM 33.6367 -84.4279 64° Northeast  Level Estimated
05:34PM 33.6367 -84.4279 64° Northeast  Level Estimated